Aviation Digital Data Service (ADDS)

Output produced by METARs form (0237 UTC 22 July 2017)
found at http://www.aviationweather.gov/adds/metars/
 
FOOG 212300Z 18006KT 9999 SCT008 OVC026 23/22 Q1016
TAF FOOG 212300Z 2200/2224 20010KT 9999 SCT008 BKN026 
     TEMPO 2205/2209 3500 BR BKN006
       
FOOL 220100Z 18007KT 9999 SCT011 BKN016 24/21 Q1014 NOSIG
TAF FOOL 212300Z 2200/2306 22007KT 8000 SCT008 BKN026 
     PROB30 
     TEMPO 2205/2208 4000 DZ BKN008
       
FOOG 212300Z 18006KT 9999 SCT008 OVC026 23/22 Q1016
TAF FOOG 212300Z 2200/2224 20010KT 9999 SCT008 BKN026 
     TEMPO 2205/2209 3500 BR BKN006
       
FOOL 220100Z 18007KT 9999 SCT011 BKN016 24/21 Q1014 NOSIG
TAF FOOL 212300Z 2200/2306 22007KT 8000 SCT008 BKN026 
     PROB30 
     TEMPO 2205/2208 4000 DZ BKN008
       
FOOL 220100Z 18007KT 9999 SCT011 BKN016 24/21 Q1014 NOSIG
TAF FOOL 212300Z 2200/2306 22007KT 8000 SCT008 BKN026 
     PROB30 
     TEMPO 2205/2208 4000 DZ BKN008
       
FOOG 212300Z 18006KT 9999 SCT008 OVC026 23/22 Q1016
TAF FOOG 212300Z 2200/2224 20010KT 9999 SCT008 BKN026 
     TEMPO 2205/2209 3500 BR BKN006